Time;durP1;ratioP1;P1;durP2;ratioP2;P2;SDS_P1;SDS_P2;PMS_P1;PMS_P2;Temp;Humidity;BMP_temperature;BMP_pressure;BME280_temperature;BME280_humidity;BME280_pressure;Samples;Min_cycle;Max_cycle;Signal;HPM_P1;HPM_P2
2023/07/26 10:26:15;;;;;;;7.32;4.35;;;22.50;99.90;;;;;;5623744;23;19926;-75
2023/07/26 10:28:42;;;;;;;6.90;3.95;;;22.50;99.90;;;;;;4948576;28;20050;-73
2023/07/26 10:31:08;;;;;;;8.18;4.15;;;22.70;99.90;;;;;;4951662;28;20023;-73
2023/07/26 10:33:44;;;;;;;9.23;4.88;;;22.80;99.90;;;;;;4944437;28;20047;-74
2023/07/26 10:36:11;;;;;;;7.68;4.80;;;22.90;99.90;;;;;;4949604;28;20038;-74
2023/07/26 10:38:40;;;;;;;6.40;4.15;;;22.90;99.90;;;;;;4947686;28;20042;-74
2023/07/26 10:41:24;;;;;;;5.80;3.65;;;23.10;99.90;;;;;;4953387;28;20495;-73
2023/07/26 10:43:50;;;;;;;5.32;3.60;;;22.90;99.90;;;;;;4955912;28;20027;-72
2023/07/26 10:46:16;;;;;;;4.88;3.67;;;22.90;99.90;;;;;;4955041;28;20025;-73
2023/07/26 10:48:42;;;;;;;5.38;3.75;;;23.10;99.90;;;;;;4955158;28;20023;-73
2023/07/26 10:51:25;;;;;;;4.53;3.78;;;22.90;99.90;;;;;;4955589;28;20054;-70
2023/07/26 10:53:53;;;;;;;7.68;4.00;;;22.90;99.90;;;;;;4955726;29;20098;-73
2023/07/26 10:56:30;;;;;;;3.72;3.28;;;23.10;99.90;;;;;;4955218;28;20035;-75
2023/07/26 10:59:05;;;;;;;6.20;3.65;;;23.40;99.90;;;;;;4954333;28;20035;-73
2023/07/26 11:01:46;;;;;;;5.30;4.03;;;23.60;99.90;;;;;;4954992;28;20031;-74
2023/07/26 11:04:13;;;;;;;5.68;4.07;;;23.50;99.90;;;;;;4955420;28;20495;-76
2023/07/26 11:06:58;;;;;;;5.03;3.58;;;23.40;99.90;;;;;;4955085;28;20033;-73
2023/07/26 11:09:25;;;;;;;6.05;4.18;;;23.60;99.90;;;;;;4953195;28;20038;-73
2023/07/26 11:12:09;;;;;;;9.25;5.05;;;23.60;99.90;;;;;;4954262;28;20031;-75
2023/07/26 11:14:35;;;;;;;5.55;4.85;;;23.20;99.90;;;;;;4955066;28;20470;-74
2023/07/26 11:17:14;;;;;;;7.53;3.83;;;22.90;99.90;;;;;;4953500;28;20015;-73
2023/07/26 11:19:48;;;;;;;6.60;4.57;;;22.50;99.90;;;;;;4955489;28;20031;-73
2023/07/26 11:22:14;;;;;;;4.65;3.67;;;22.30;99.90;;;;;;4953737;28;20031;-73
2023/07/26 11:24:39;;;;;;;4.93;3.85;;;22.00;99.90;;;;;;4954749;28;20081;-74
2023/07/26 11:27:06;;;;;;;5.25;3.25;;;21.90;99.90;;;;;;4954441;28;20118;-75
2023/07/26 11:29:35;;;;;;;3.63;2.80;;;21.80;99.90;;;;;;4954048;29;20031;-72
2023/07/26 11:32:01;;;;;;;4.30;2.92;;;21.70;99.90;;;;;;4954394;28;20020;-75
2023/07/26 11:34:27;;;;;;;5.65;3.08;;;21.70;99.90;;;;;;4954783;28;20019;-73
2023/07/26 11:37:08;;;;;;;5.32;2.88;;;21.70;99.90;;;;;;4951403;28;20050;-73
2023/07/26 11:39:34;;;;;;;5.80;3.55;;;22.00;99.90;;;;;;4952144;28;20035;-72
2023/07/26 11:42:00;;;;;;;4.38;3.35;;;22.30;99.90;;;;;;4953568;28;20679;-73
2023/07/26 11:44:26;;;;;;;3.75;3.38;;;22.60;99.90;;;;;;4954495;29;20387;-72
2023/07/26 11:46:52;;;;;;;14.13;4.82;;;22.90;99.90;;;;;;4954088;28;20528;-73
2023/07/26 11:49:23;;;;;;;8.30;4.15;;;23.20;99.90;;;;;;4954653;28;20114;-73
2023/07/26 11:51:50;;;;;;;6.40;3.70;;;23.40;99.90;;;;;;4954058;28;20023;-72
2023/07/26 11:54:16;;;;;;;4.35;3.58;;;23.60;99.90;;;;;;4954012;29;20451;-73
2023/07/26 11:56:42;;;;;;;6.22;3.70;;;23.70;99.90;;;;;;4953392;28;20027;-72
2023/07/26 11:59:09;;;;;;;4.60;3.42;;;23.50;99.90;;;;;;4953986;28;20042;-73
2023/07/26 12:01:39;;;;;;;6.05;3.67;;;23.80;99.90;;;;;;4953709;28;20031;-72
2023/07/26 12:04:16;;;;;;;5.82;3.75;;;24.10;99.90;;;;;;4954305;28;20015;-73
2023/07/26 12:06:44;;;;;;;3.63;3.30;;;24.30;99.90;;;;;;4929658;28;20051;-73
2023/07/26 12:09:11;;;;;;;7.70;4.40;;;24.30;99.90;;;;;;4934162;28;20602;-74
2023/07/26 12:11:38;;;;;;;4.75;3.28;;;24.40;99.90;;;;;;4948428;28;20054;-74
2023/07/26 12:14:04;;;;;;;6.38;3.80;;;24.60;99.90;;;;;;4948769;28;20547;-73
2023/07/26 12:16:31;;;;;;;3.97;3.47;;;24.70;99.90;;;;;;4946484;29;20113;-75
2023/07/26 12:19:00;;;;;;;4.00;2.78;;;24.80;99.90;;;;;;4947647;28;20038;-73
2023/07/26 12:21:26;;;;;;;5.35;2.55;;;24.70;99.90;;;;;;4946235;28;20055;-73
2023/07/26 12:23:58;;;;;;;4.93;2.35;;;24.80;99.90;;;;;;4947663;28;20031;-72
2023/07/26 12:26:26;;;;;;;2.72;1.80;;;24.80;99.90;;;;;;4947865;28;20027;-74
2023/07/26 12:28:53;;;;;;;2.92;1.95;;;24.80;99.90;;;;;;4947698;29;20117;-72
2023/07/26 12:31:21;;;;;;;3.22;1.90;;;24.80;99.90;;;;;;4947552;28;20038;-73
2023/07/26 12:33:57;;;;;;;3.63;1.88;;;24.90;99.90;;;;;;4947966;28;20015;-72
2023/07/26 12:36:47;;;;;;;2.45;1.83;;;25.10;99.90;;;;;;4947892;28;20023;-72
2023/07/26 12:39:15;;;;;;;2.38;1.65;;;25.00;99.60;;;;;;4946964;28;20058;-72
2023/07/26 12:41:42;;;;;;;2.40;1.95;;;25.00;99.90;;;;;;4948118;28;20081;-73
2023/07/26 12:44:08;;;;;;;2.38;2.17;;;25.20;99.90;;;;;;4947716;28;20063;-71
2023/07/26 12:46:34;;;;;;;3.28;2.20;;;25.40;99.90;;;;;;4946748;29;20118;-73
2023/07/26 12:49:00;;;;;;;3.15;2.15;;;25.50;99.90;;;;;;4946798;29;20086;-73
2023/07/26 12:51:27;;;;;;;2.75;2.28;;;25.10;98.90;;;;;;4947887;28;20551;-71
2023/07/26 12:53:56;;;;;;;3.00;2.30;;;25.10;98.80;;;;;;4947278;28;20047;-72
2023/07/26 12:56:23;;;;;;;2.53;2.00;;;24.90;99.00;;;;;;4947352;28;20031;-74
2023/07/26 12:58:48;;;;;;;3.10;2.30;;;24.80;99.90;;;;;;4945595;28;20035;-71
2023/07/26 13:01:15;;;;;;;4.78;2.67;;;25.00;99.90;;;;;;4947236;28;20910;-73
2023/07/26 13:03:41;;;;;;;3.63;2.47;;;24.90;99.90;;;;;;4946688;28;20610;-71
2023/07/26 13:06:06;;;;;;;3.83;2.10;;;25.10;99.90;;;;;;4946105;28;20070;-71
2023/07/26 13:08:32;;;;;;;3.47;2.60;;;25.20;99.90;;;;;;4946402;28;20059;-71
2023/07/26 13:10:59;;;;;;;2.60;2.40;;;25.30;99.90;;;;;;4947571;28;20102;-70
2023/07/26 13:13:26;;;;;;;2.28;2.08;;;25.20;99.90;;;;;;4947069;29;20066;-70
2023/07/26 13:15:53;;;;;;;4.63;2.40;;;25.10;99.90;;;;;;4945904;28;20150;-73
2023/07/26 13:18:18;;;;;;;2.45;2.10;;;25.10;99.90;;;;;;4947038;28;20019;-71
2023/07/26 13:20:44;;;;;;;2.50;2.30;;;25.00;99.90;;;;;;4947577;28;20490;-71
2023/07/26 13:23:13;;;;;;;4.22;2.38;;;25.20;99.90;;;;;;4947092;28;20023;-71
2023/07/26 13:25:39;;;;;;;4.03;2.42;;;25.20;99.70;;;;;;4947667;28;20082;-72
2023/07/26 13:28:05;;;;;;;4.75;3.00;;;25.20;99.90;;;;;;4945112;28;20035;-73
2023/07/26 13:30:32;;;;;;;6.75;2.88;;;25.40;99.90;;;;;;4945593;28;20030;-75
2023/07/26 13:32:57;;;;;;;4.68;3.20;;;25.40;99.90;;;;;;4947058;28;20085;-71
2023/07/26 13:35:23;;;;;;;4.10;2.90;;;25.30;99.90;;;;;;4947517;28;20476;-71
2023/07/26 13:37:49;;;;;;;4.40;2.63;;;25.20;99.90;;;;;;4946530;28;20031;-70
2023/07/26 13:40:19;;;;;;;4.53;2.90;;;25.30;99.90;;;;;;4946414;28;20085;-71
2023/07/26 13:42:45;;;;;;;3.58;2.95;;;25.30;99.90;;;;;;4947455;29;20058;-71
2023/07/26 13:45:10;;;;;;;2.95;2.65;;;25.10;98.60;;;;;;4946598;28;20150;-72
2023/07/26 13:47:36;;;;;;;4.55;2.83;;;25.10;99.00;;;;;;4945777;29;20468;-70
2023/07/26 13:50:03;;;;;;;4.25;3.10;;;25.10;98.80;;;;;;4947318;28;20102;-72
2023/07/26 13:52:29;;;;;;;5.47;3.40;;;25.00;99.90;;;;;;4945767;28;20380;-71
2023/07/26 13:54:54;;;;;;;3.08;2.35;;;25.00;99.90;;;;;;4947255;28;20102;-71
2023/07/26 13:57:21;;;;;;;3.78;2.40;;;25.00;99.90;;;;;;4948357;28;20527;-73
2023/07/26 13:59:47;;;;;;;3.85;2.70;;;25.00;99.90;;;;;;4949265;29;20176;-72
2023/07/26 14:02:13;;;;;;;3.53;2.75;;;25.00;98.90;;;;;;4950590;28;20023;-71
2023/07/26 14:04:39;;;;;;;3.53;2.83;;;25.10;99.90;;;;;;4950346;28;20082;-72
2023/07/26 14:07:04;;;;;;;5.55;2.55;;;25.10;99.90;;;;;;4948925;28;20031;-74
2023/07/26 14:09:30;;;;;;;6.20;3.30;;;25.30;99.90;;;;;;4950267;28;20472;-72
2023/07/26 14:11:56;;;;;;;3.88;2.63;;;25.30;99.80;;;;;;4948344;29;20534;-72
2023/07/26 14:14:22;;;;;;;5.25;3.50;;;25.30;99.90;;;;;;4949956;28;20134;-72
2023/07/26 14:16:48;;;;;;;4.30;2.58;;;25.40;99.90;;;;;;4950185;28;20027;-70
2023/07/26 14:19:14;;;;;;;3.78;2.65;;;25.60;99.90;;;;;;4949872;28;20039;-73
2023/07/26 14:21:39;;;;;;;3.78;3.25;;;25.50;98.60;;;;;;4950097;28;20389;-73
2023/07/26 14:24:05;;;;;;;3.13;2.80;;;25.40;99.00;;;;;;4950376;28;20035;-71
2023/07/26 14:26:31;;;;;;;5.00;3.05;;;25.40;98.60;;;;;;4949908;28;20460;-70
2023/07/26 14:28:57;;;;;;;3.38;3.08;;;25.40;98.60;;;;;;4949238;28;20070;-71
2023/07/26 14:31:23;;;;;;;5.55;3.53;;;25.40;98.60;;;;;;4950068;28;20027;-71
2023/07/26 14:33:50;;;;;;;3.45;3.15;;;25.30;98.00;;;;;;4949197;28;20019;-73
2023/07/26 14:36:16;;;;;;;3.33;2.92;;;25.30;99.20;;;;;;4947403;28;20035;-72
2023/07/26 14:38:42;;;;;;;3.20;2.90;;;25.20;98.90;;;;;;4946284;29;20027;-71
2023/07/26 14:41:09;;;;;;;5.85;3.33;;;25.30;99.80;;;;;;4949748;28;20047;-72
2023/07/26 14:43:35;;;;;;;6.57;3.50;;;25.40;99.90;;;;;;4948474;28;20027;-71
2023/07/26 14:46:01;;;;;;;3.95;3.00;;;25.30;99.00;;;;;;4949668;28;20027;-70
2023/07/26 14:48:26;;;;;;;4.25;3.22;;;25.40;99.60;;;;;;4949951;29;20087;-71
2023/07/26 14:50:53;;;;;;;4.07;3.10;;;25.40;99.00;;;;;;4948315;28;20035;-74
2023/07/26 14:53:23;;;;;;;3.60;3.05;;;25.30;99.30;;;;;;4950292;28;20031;-73
2023/07/26 14:55:50;;;;;;;5.40;2.95;;;24.90;98.70;;;;;;4947926;28;20033;-72
2023/07/26 14:58:15;;;;;;;5.38;2.83;;;24.90;98.30;;;;;;4948144;29;20472;-75
2023/07/26 15:00:41;;;;;;;6.03;2.97;;;25.00;99.30;;;;;;4949442;28;20090;-75
2023/07/26 15:03:07;;;;;;;3.63;3.28;;;24.90;98.50;;;;;;4950080;28;20138;-74
2023/07/26 15:05:32;;;;;;;5.95;3.20;;;24.70;98.70;;;;;;4946245;28;20480;-72
2023/07/26 15:07:59;;;;;;;3.92;3.53;;;24.50;98.80;;;;;;4948019;28;20030;-72
2023/07/26 15:10:25;;;;;;;4.32;3.55;;;24.60;99.90;;;;;;4947656;28;20035;-72
2023/07/26 15:12:51;;;;;;;5.25;3.25;;;24.80;99.90;;;;;;4949511;28;20391;-73
2023/07/26 15:15:16;;;;;;;4.00;2.90;;;24.80;99.90;;;;;;4948170;29;20058;-73
2023/07/26 15:17:42;;;;;;;6.00;3.13;;;24.80;99.10;;;;;;4949680;28;20468;-71
2023/07/26 15:20:08;;;;;;;5.47;3.22;;;24.70;99.20;;;;;;4949640;28;20039;-72
2023/07/26 15:22:34;;;;;;;4.10;3.35;;;24.50;99.70;;;;;;4948856;28;20020;-73
2023/07/26 15:25:00;;;;;;;3.05;2.75;;;24.70;99.10;;;;;;4949269;28;20464;-70
2023/07/26 15:27:26;;;;;;;3.45;2.75;;;24.70;99.90;;;;;;4946342;28;20110;-71
2023/07/26 15:29:51;;;;;;;3.95;2.65;;;24.70;99.90;;;;;;4947761;29;20043;-69
2023/07/26 15:32:17;;;;;;;6.05;3.65;;;24.90;99.90;;;;;;4947874;28;20031;-72
2023/07/26 15:34:42;;;;;;;3.20;2.95;;;25.10;99.90;;;;;;4949836;28;20050;-72
2023/07/26 15:37:08;;;;;;;5.28;3.10;;;25.10;99.90;;;;;;4948279;28;20023;-72
2023/07/26 15:39:34;;;;;;;6.43;3.80;;;25.00;99.10;;;;;;4949194;28;20035;-70
2023/07/26 15:42:00;;;;;;;5.05;2.80;;;25.00;98.90;;;;;;4947776;28;20366;-72
2023/07/26 15:44:25;;;;;;;6.68;3.90;;;25.10;99.90;;;;;;4948802;28;20523;-69
2023/07/26 15:46:51;;;;;;;5.20;3.20;;;25.00;98.60;;;;;;4949034;28;20495;-72
2023/07/26 15:49:17;;;;;;;4.50;3.17;;;25.00;99.90;;;;;;4949025;28;20045;-71
2023/07/26 15:51:42;;;;;;;5.38;3.42;;;24.90;99.80;;;;;;4948496;28;20034;-71
2023/07/26 15:54:08;;;;;;;4.90;3.28;;;24.90;99.90;;;;;;4949126;28;20459;-72
2023/07/26 15:56:34;;;;;;;4.25;3.58;;;24.90;99.90;;;;;;4948312;28;20038;-72
2023/07/26 15:59:00;;;;;;;3.92;3.20;;;24.80;99.80;;;;;;4947808;29;20039;-70
2023/07/26 16:01:26;;;;;;;4.68;3.28;;;24.70;99.90;;;;;;4948144;28;20030;-71
2023/07/26 16:03:52;;;;;;;4.72;3.70;;;24.70;99.90;;;;;;4949272;28;20027;-74
2023/07/26 16:06:17;;;;;;;5.85;3.30;;;24.70;99.90;;;;;;4947660;28;20023;-72
2023/07/26 16:08:43;;;;;;;3.63;3.17;;;24.70;99.90;;;;;;4944489;28;20062;-71
2023/07/26 16:11:09;;;;;;;7.30;3.28;;;24.50;99.90;;;;;;4948300;28;20027;-71
2023/07/26 16:13:35;;;;;;;4.05;3.10;;;24.50;99.90;;;;;;4948025;28;20110;-71
2023/07/26 16:16:01;;;;;;;4.97;3.28;;;24.50;99.90;;;;;;4947906;28;20045;-71
2023/07/26 16:18:29;;;;;;;4.85;3.28;;;24.40;99.70;;;;;;4947247;28;20122;-71
2023/07/26 16:20:55;;;;;;;4.60;3.65;;;24.40;99.90;;;;;;4947159;28;20039;-72
2023/07/26 16:23:21;;;;;;;4.30;3.90;;;24.40;99.90;;;;;;4948772;28;20058;-71
2023/07/26 16:25:47;;;;;;;4.30;3.42;;;24.40;99.10;;;;;;4946147;28;20035;-71
2023/07/26 16:28:14;;;;;;;4.55;3.70;;;24.40;99.90;;;;;;4947310;28;20031;-70
2023/07/26 16:30:40;;;;;;;5.07;3.35;;;24.40;99.90;;;;;;4948095;28;20119;-69
2023/07/26 16:33:06;;;;;;;5.82;3.63;;;24.40;99.90;;;;;;4947724;28;20106;-70
2023/07/26 16:35:31;;;;;;;5.28;3.38;;;24.40;99.90;;;;;;4947368;28;20203;-71
2023/07/26 16:37:57;;;;;;;3.92;3.38;;;24.40;99.90;;;;;;4948002;28;20511;-70
2023/07/26 16:40:23;;;;;;;4.97;3.63;;;24.40;99.90;;;;;;4947585;28;20039;-70
2023/07/26 16:42:49;;;;;;;4.93;3.35;;;24.30;99.90;;;;;;4947467;28;20024;-72
2023/07/26 16:45:15;;;;;;;4.53;4.03;;;24.10;99.90;;;;;;4948069;28;20706;-72
2023/07/26 16:47:41;;;;;;;4.65;3.33;;;24.00;99.90;;;;;;4947113;29;20015;-72
2023/07/26 16:50:11;;;;;;;6.32;3.08;;;23.90;99.90;;;;;;4945582;28;20518;-73
2023/07/26 16:52:38;;;;;;;5.20;3.45;;;23.90;99.90;;;;;;4943427;28;20032;-74
2023/07/26 16:55:04;;;;;;;7.32;3.72;;;23.80;99.90;;;;;;4947444;28;20031;-72
2023/07/26 16:57:30;;;;;;;4.70;3.35;;;23.90;99.90;;;;;;4946891;28;20059;-73
2023/07/26 16:59:55;;;;;;;4.40;3.13;;;23.90;99.90;;;;;;4945551;28;20139;-73
2023/07/26 17:02:21;;;;;;;6.63;3.78;;;24.00;99.90;;;;;;4947341;28;20395;-73
2023/07/26 17:04:47;;;;;;;5.15;3.35;;;24.00;99.90;;;;;;4946703;28;20086;-73
2023/07/26 17:07:13;;;;;;;5.63;4.00;;;24.00;99.90;;;;;;4947595;28;20511;-74
2023/07/26 17:09:39;;;;;;;4.18;3.78;;;24.00;99.90;;;;;;4945582;28;20023;-73
2023/07/26 17:12:05;;;;;;;4.63;3.55;;;24.00;99.90;;;;;;4946658;28;20469;-74
2023/07/26 17:14:31;;;;;;;4.38;3.17;;;24.00;99.90;;;;;;4946213;29;20024;-72
2023/07/26 17:16:56;;;;;;;4.78;3.35;;;23.90;99.90;;;;;;4945989;28;20034;-73
2023/07/26 17:19:22;;;;;;;5.03;3.60;;;23.90;99.90;;;;;;4946475;28;20042;-73
2023/07/26 17:21:48;;;;;;;3.97;3.30;;;23.80;99.90;;;;;;4946977;28;20468;-73
2023/07/26 17:24:14;;;;;;;4.15;2.78;;;23.80;99.90;;;;;;4945363;28;20126;-72
2023/07/26 17:26:39;;;;;;;4.57;3.58;;;23.80;99.90;;;;;;4941658;28;20595;-72
2023/07/26 17:29:05;;;;;;;4.15;3.50;;;23.80;99.90;;;;;;4945674;28;20020;-73
2023/07/26 17:31:32;;;;;;;4.15;3.10;;;23.80;99.90;;;;;;4948663;28;20031;-73
2023/07/26 17:34:00;;;;;;;6.18;3.70;;;23.80;99.90;;;;;;4950838;28;20034;-73
2023/07/26 17:36:26;;;;;;;5.65;2.80;;;23.70;99.90;;;;;;4950297;28;20038;-73
2023/07/26 17:38:52;;;;;;;6.40;3.60;;;23.60;99.90;;;;;;4950714;28;20035;-73
2023/07/26 17:41:17;;;;;;;5.63;3.63;;;23.60;99.90;;;;;;4950806;28;20074;-72
2023/07/26 17:43:47;;;;;;;5.68;3.70;;;23.60;99.90;;;;;;4950791;28;20047;-72
2023/07/26 17:46:13;;;;;;;7.05;3.13;;;23.50;99.90;;;;;;4950808;29;20163;-72
2023/07/26 17:48:39;;;;;;;6.95;3.80;;;23.50;99.90;;;;;;4951108;28;20109;-73
2023/07/26 17:51:06;;;;;;;4.32;3.67;;;23.50;99.90;;;;;;4950841;28;20015;-72
2023/07/26 17:53:35;;;;;;;4.70;3.50;;;23.60;99.90;;;;;;4950765;28;20027;-73
2023/07/26 17:56:01;;;;;;;3.80;3.38;;;23.60;99.90;;;;;;4949207;28;20023;-72
2023/07/26 17:58:26;;;;;;;4.55;3.53;;;23.50;99.90;;;;;;4949635;28;20098;-73
2023/07/26 18:00:53;;;;;;;4.90;3.30;;;23.50;99.90;;;;;;4947224;28;20058;-72
2023/07/26 18:03:19;;;;;;;6.50;3.75;;;23.60;99.90;;;;;;4950798;28;20031;-73
2023/07/26 18:05:45;;;;;;;5.20;3.15;;;23.50;99.90;;;;;;4950300;28;20035;-72
2023/07/26 18:08:11;;;;;;;5.07;3.30;;;23.40;99.90;;;;;;4948086;28;20526;-74
2023/07/26 18:10:37;;;;;;;5.30;3.95;;;23.30;99.90;;;;;;4949159;28;20383;-72
2023/07/26 18:13:03;;;;;;;4.63;3.42;;;23.30;99.90;;;;;;4950436;28;20031;-73
2023/07/26 18:15:29;;;;;;;6.35;3.75;;;23.20;99.90;;;;;;4950069;28;20039;-72
2023/07/26 18:17:55;;;;;;;4.53;3.53;;;23.30;99.90;;;;;;4947457;28;20078;-72
2023/07/26 18:20:21;;;;;;;9.50;4.18;;;23.30;99.90;;;;;;4949430;28;20039;-72
2023/07/26 18:22:46;;;;;;;5.28;3.95;;;23.10;99.90;;;;;;4950055;28;20019;-72
2023/07/26 18:25:12;;;;;;;7.13;3.72;;;23.10;99.90;;;;;;4950367;28;20393;-72
2023/07/26 18:27:38;;;;;;;6.25;3.63;;;23.10;99.90;;;;;;4948760;28;20043;-72
2023/07/26 18:30:04;;;;;;;9.15;3.65;;;23.20;99.90;;;;;;4948333;29;20046;-73
2023/07/26 18:32:31;;;;;;;7.03;3.40;;;23.10;99.90;;;;;;4947545;28;20038;-72
2023/07/26 18:34:56;;;;;;;5.55;3.38;;;23.00;99.90;;;;;;4948630;28;20493;-72
2023/07/26 18:37:22;;;;;;;7.72;3.67;;;22.80;99.90;;;;;;4949542;28;20080;-73
2023/07/26 18:39:48;;;;;;;5.05;3.92;;;22.70;99.90;;;;;;4949850;28;20492;-72
2023/07/26 18:42:14;;;;;;;7.82;3.97;;;22.60;99.90;;;;;;4949227;28;20028;-73
2023/07/26 18:44:39;;;;;;;3.90;3.45;;;22.50;99.90;;;;;;4948415;28;20488;-70
2023/07/26 18:47:07;;;;;;;8.07;3.70;;;22.40;99.90;;;;;;4949745;28;20031;-71
2023/07/26 18:49:35;;;;;;;6.13;3.67;;;22.40;99.90;;;;;;4948631;28;20495;-71
2023/07/26 18:52:01;;;;;;;5.50;3.35;;;22.40;99.90;;;;;;4949114;28;20023;-71
2023/07/26 18:54:27;;;;;;;7.18;3.70;;;22.30;99.90;;;;;;4949803;28;20185;-71
2023/07/26 18:56:52;;;;;;;5.30;3.25;;;22.30;99.90;;;;;;4949415;28;20110;-70
2023/07/26 18:59:18;;;;;;;4.43;3.35;;;22.30;99.90;;;;;;4947971;28;20110;-71
2023/07/26 19:01:44;;;;;;;3.95;3.55;;;22.30;99.90;;;;;;4949350;28;20498;-72
2023/07/26 19:04:09;;;;;;;6.18;3.20;;;22.20;99.90;;;;;;4950673;28;20035;-70
2023/07/26 19:06:35;;;;;;;4.22;3.38;;;22.20;99.90;;;;;;4947432;28;20553;-70
2023/07/26 19:09:02;;;;;;;5.55;3.08;;;22.10;99.90;;;;;;4949672;28;20467;-70
2023/07/26 19:11:28;;;;;;;3.85;3.30;;;22.00;99.90;;;;;;4949666;28;20027;-69
2023/07/26 19:13:54;;;;;;;5.90;4.43;;;22.00;99.90;;;;;;4949231;28;20103;-71
2023/07/26 19:16:20;;;;;;;6.00;3.60;;;22.00;99.90;;;;;;4947591;28;20126;-71
2023/07/26 19:18:46;;;;;;;6.40;4.43;;;22.00;99.90;;;;;;4949650;28;20036;-70
2023/07/26 19:21:12;;;;;;;5.97;3.83;;;22.00;99.90;;;;;;4948061;28;20093;-71
2023/07/26 19:23:37;;;;;;;4.18;3.78;;;21.90;99.90;;;;;;4949411;28;20091;-71
2023/07/26 19:26:03;;;;;;;5.30;3.67;;;21.80;99.90;;;;;;4949006;28;20572;-70
2023/07/26 19:28:30;;;;;;;5.60;4.30;;;21.60;99.90;;;;;;4948611;28;20038;-70
2023/07/26 19:31:00;;;;;;;9.35;4.00;;;21.60;99.90;;;;;;4948164;28;20504;-70
2023/07/26 19:33:26;;;;;;;6.82;4.00;;;21.60;99.90;;;;;;4949327;28;20035;-71
2023/07/26 19:35:56;;;;;;;4.95;3.53;;;21.60;99.90;;;;;;4947062;28;20019;-70
2023/07/26 19:38:22;;;;;;;5.22;4.07;;;21.70;99.90;;;;;;4947829;28;20106;-70
2023/07/26 19:41:08;;;;;;;7.30;3.47;;;21.70;99.90;;;;;;4949134;28;20031;-70
2023/07/26 19:43:36;;;;;;;6.40;3.85;;;21.60;99.90;;;;;;4949255;28;20122;-70
2023/07/26 19:46:05;;;;;;;6.40;3.95;;;21.60;99.90;;;;;;4947090;28;20027;-70
2023/07/26 19:48:30;;;;;;;5.35;3.67;;;21.50;99.90;;;;;;4948112;28;20019;-70
2023/07/26 19:50:56;;;;;;;7.15;4.10;;;21.50;99.90;;;;;;4947340;28;20038;-70
2023/07/26 19:53:21;;;;;;;7.55;4.68;;;21.50;99.90;;;;;;4948456;28;20523;-71
2023/07/26 19:55:48;;;;;;;6.95;4.30;;;21.40;99.90;;;;;;4947315;28;20035;-71
2023/07/26 19:58:14;;;;;;;7.07;4.63;;;21.40;99.90;;;;;;4946118;28;20035;-71
2023/07/26 20:00:40;;;;;;;5.10;4.03;;;21.40;99.90;;;;;;4947882;28;20522;-71
2023/07/26 20:03:07;;;;;;;5.82;4.25;;;21.40;99.90;;;;;;4946692;28;20029;-73
2023/07/26 20:05:34;;;;;;;7.68;4.25;;;21.40;99.90;;;;;;4947735;28;20042;-70
2023/07/26 20:08:00;;;;;;;5.85;4.32;;;21.30;99.90;;;;;;4946638;29;20027;-70
2023/07/26 20:10:26;;;;;;;8.20;4.70;;;21.30;99.90;;;;;;4946664;28;20059;-70
2023/07/26 20:12:52;;;;;;;8.32;4.03;;;21.20;99.90;;;;;;4948318;28;20024;-71
2023/07/26 20:15:18;;;;;;;6.30;4.20;;;21.10;99.90;;;;;;4948013;29;20023;-71
2023/07/26 20:17:44;;;;;;;6.38;4.70;;;21.10;99.90;;;;;;4946076;28;20042;-71
2023/07/26 20:20:10;;;;;;;7.13;4.38;;;21.10;99.90;;;;;;4948260;28;20078;-70
2023/07/26 20:22:36;;;;;;;4.85;4.35;;;21.10;99.90;;;;;;4947941;28;20019;-71
2023/07/26 20:25:02;;;;;;;9.48;4.68;;;21.10;99.90;;;;;;4947541;28;20024;-70
2023/07/26 20:27:27;;;;;;;6.57;4.53;;;21.10;99.90;;;;;;4947386;28;20551;-72
2023/07/26 20:29:53;;;;;;;5.97;4.28;;;21.10;99.90;;;;;;4948252;28;20127;-70
2023/07/26 20:32:19;;;;;;;10.50;4.90;;;21.10;99.90;;;;;;4947180;28;20030;-71
2023/07/26 20:34:45;;;;;;;8.88;5.13;;;21.10;99.90;;;;;;4947716;28;20046;-70
2023/07/26 20:37:10;;;;;;;7.63;4.63;;;21.10;99.90;;;;;;4946400;29;20082;-69
2023/07/26 20:39:36;;;;;;;4.70;4.00;;;21.00;99.90;;;;;;4947582;28;20066;-71
2023/07/26 20:42:02;;;;;;;8.90;5.03;;;21.00;99.90;;;;;;4947958;28;20480;-69
2023/07/26 20:44:27;;;;;;;4.68;4.20;;;20.90;99.90;;;;;;4946558;28;20424;-71
2023/07/26 20:46:53;;;;;;;10.10;4.88;;;20.90;99.90;;;;;;4947128;28;20481;-71
2023/07/26 20:49:19;;;;;;;11.50;4.30;;;20.80;99.90;;;;;;4947408;28;20042;-71
2023/07/26 20:51:45;;;;;;;6.55;4.57;;;20.90;99.90;;;;;;4947749;28;20488;-71
2023/07/26 20:54:12;;;;;;;7.57;4.75;;;20.70;99.90;;;;;;4946311;28;20094;-73
2023/07/26 20:56:37;;;;;;;7.82;4.80;;;20.70;99.90;;;;;;4945799;28;20784;-70
2023/07/26 20:59:03;;;;;;;8.18;4.55;;;20.70;99.90;;;;;;4941253;28;20074;-70
2023/07/26 21:01:29;;;;;;;9.43;4.97;;;20.60;99.90;;;;;;4942023;28;20070;-71
2023/07/26 21:03:56;;;;;;;5.25;4.22;;;20.60;99.90;;;;;;4946155;28;20122;-70
2023/07/26 21:06:22;;;;;;;7.40;4.60;;;20.60;99.90;;;;;;4946514;28;20023;-71
2023/07/26 21:08:47;;;;;;;6.32;4.47;;;20.60;99.90;;;;;;4951444;29;20102;-71
2023/07/26 21:11:13;;;;;;;9.13;4.75;;;20.60;99.90;;;;;;4951082;28;20373;-73
2023/07/26 21:13:39;;;;;;;8.45;4.68;;;20.60;99.90;;;;;;4951168;28;20396;-76
2023/07/26 21:16:04;;;;;;;6.68;5.63;;;20.40;99.90;;;;;;4951221;29;20031;-73
2023/07/26 21:18:30;;;;;;;8.55;4.80;;;20.40;99.90;;;;;;4950668;28;20031;-70
2023/07/26 21:20:56;;;;;;;7.15;4.80;;;20.50;99.90;;;;;;4946851;29;20046;-72
2023/07/26 21:23:21;;;;;;;6.32;4.43;;;20.50;99.90;;;;;;4947642;29;20102;-70
2023/07/26 21:25:48;;;;;;;8.20;4.30;;;20.50;99.90;;;;;;4950698;28;20474;-75
2023/07/26 21:28:15;;;;;;;7.68;4.57;;;20.50;99.90;;;;;;4950525;28;20404;-70
2023/07/26 21:30:46;;;;;;;7.70;4.60;;;20.40;99.90;;;;;;4949857;28;20081;-71
2023/07/26 21:33:12;;;;;;;6.88;5.18;;;20.40;99.90;;;;;;4951143;28;20023;-71
2023/07/26 21:35:38;;;;;;;7.53;5.25;;;20.40;99.90;;;;;;4951077;28;20031;-72
2023/07/26 21:38:04;;;;;;;8.05;5.03;;;20.30;99.90;;;;;;4948847;29;20023;-71
2023/07/26 21:40:30;;;;;;;8.20;5.22;;;20.40;99.90;;;;;;4949707;28;20046;-71
2023/07/26 21:42:55;;;;;;;8.52;4.50;;;20.30;99.90;;;;;;4951050;28;20034;-71
2023/07/26 21:45:21;;;;;;;7.75;4.82;;;20.30;99.90;;;;;;4950113;28;20035;-72
2023/07/26 21:47:46;;;;;;;5.78;4.60;;;20.30;99.90;;;;;;4950235;28;20027;-72
2023/07/26 21:50:12;;;;;;;5.15;4.65;;;20.30;99.90;;;;;;4950166;28;20031;-72
2023/07/26 21:52:38;;;;;;;6.95;4.22;;;20.30;99.90;;;;;;4950860;28;20023;-69
2023/07/26 21:55:04;;;;;;;9.63;5.03;;;20.20;99.90;;;;;;4950021;28;20102;-71
2023/07/26 21:57:30;;;;;;;7.85;4.28;;;20.20;99.90;;;;;;4948561;29;20031;-71
2023/07/26 21:59:56;;;;;;;7.90;4.40;;;20.20;99.90;;;;;;4950524;28;20049;-71
2023/07/26 22:02:21;;;;;;;9.73;4.88;;;20.10;99.90;;;;;;4950603;28;20038;-69
2023/07/26 22:04:47;;;;;;;6.53;4.68;;;20.10;99.90;;;;;;4950123;28;20136;-69
2023/07/26 22:07:13;;;;;;;10.05;4.32;;;20.10;99.90;;;;;;4950275;28;20384;-69
2023/07/26 22:09:38;;;;;;;7.45;4.30;;;20.10;99.90;;;;;;4950305;28;20038;-70
2023/07/26 22:12:04;;;;;;;10.35;4.07;;;20.10;99.90;;;;;;4950748;28;20019;-69
2023/07/26 22:14:30;;;;;;;7.90;4.60;;;20.10;99.90;;;;;;4950101;28;20488;-69
2023/07/26 22:16:56;;;;;;;7.68;4.28;;;20.10;99.90;;;;;;4948845;28;20035;-69
2023/07/26 22:19:22;;;;;;;6.75;4.68;;;20.00;99.90;;;;;;4949914;28;20110;-69
2023/07/26 22:21:47;;;;;;;6.75;4.47;;;20.00;99.90;;;;;;4950373;28;20786;-69
2023/07/26 22:24:13;;;;;;;6.05;4.78;;;20.00;99.90;;;;;;4949888;28;20529;-70
2023/07/26 22:26:39;;;;;;;6.22;4.82;;;20.00;99.90;;;;;;4949797;28;20034;-70
2023/07/26 22:29:04;;;;;;;9.30;4.03;;;20.00;99.90;;;;;;4951153;28;20488;-69
2023/07/26 22:31:30;;;;;;;7.28;4.28;;;19.90;99.90;;;;;;4943383;28;20031;-69
2023/07/26 22:33:55;;;;;;;6.30;4.03;;;19.90;99.90;;;;;;4955173;28;20031;-72
2023/07/26 22:36:21;;;;;;;5.47;4.57;;;19.90;99.90;;;;;;4955754;29;20031;-73
2023/07/26 22:38:47;;;;;;;7.03;4.60;;;19.90;99.90;;;;;;4956014;29;20074;-69
2023/07/26 22:41:13;;;;;;;7.13;4.90;;;19.90;99.90;;;;;;4954583;29;20027;-69
2023/07/26 22:43:39;;;;;;;7.32;4.95;;;19.90;99.90;;;;;;4955965;29;20055;-70
2023/07/26 22:46:04;;;;;;;7.88;4.63;;;19.80;99.90;;;;;;4955729;28;20106;-73
2023/07/26 22:48:30;;;;;;;6.82;4.63;;;19.90;99.90;;;;;;4955410;28;20027;-74
2023/07/26 22:50:56;;;;;;;9.65;5.00;;;19.80;99.90;;;;;;4955879;28;20031;-74
2023/07/26 22:53:21;;;;;;;7.32;4.43;;;19.80;99.90;;;;;;4955925;28;20023;-73
2023/07/26 22:55:47;;;;;;;9.35;4.95;;;19.80;99.90;;;;;;4955884;28;20135;-70
2023/07/26 22:58:13;;;;;;;8.60;4.93;;;19.80;99.90;;;;;;4955414;28;20074;-74
2023/07/26 23:00:39;;;;;;;9.43;5.15;;;19.80;99.90;;;;;;4955397;28;20074;-74
2023/07/26 23:03:05;;;;;;;7.38;5.32;;;19.80;99.90;;;;;;4956270;28;20030;-73
2023/07/26 23:05:30;;;;;;;9.20;6.40;;;19.80;99.90;;;;;;4955227;28;20098;-74
2023/07/26 23:07:56;;;;;;;7.30;5.40;;;19.80;99.90;;;;;;4955323;28;20035;-72